sensor_id;sensor_type;location;lat;lon;timestamp;pressure;altitude;pressure_sealevel;temperature;humidity
77869;BME280;67231;59.144;37.934;2024-01-25T00:00:03;98792.81;;;0.78;83.00
77869;BME280;67231;59.144;37.934;2024-01-25T00:02:33;98799.72;;;0.79;83.01
77869;BME280;67231;59.144;37.934;2024-01-25T00:04:59;98800.41;;;0.81;83.38
77869;BME280;67231;59.144;37.934;2024-01-25T00:07:26;98809.88;;;0.82;82.88
77869;BME280;67231;59.144;37.934;2024-01-25T00:09:53;98813.22;;;0.84;83.13
77869;BME280;67231;59.144;37.934;2024-01-25T00:12:19;98807.41;;;0.80;83.23
77869;BME280;67231;59.144;37.934;2024-01-25T00:14:46;98802.06;;;0.82;83.63
77869;BME280;67231;59.144;37.934;2024-01-25T00:17:12;98801.13;;;0.83;83.41
77869;BME280;67231;59.144;37.934;2024-01-25T00:19:39;98801.13;;;0.83;83.19
77869;BME280;67231;59.144;37.934;2024-01-25T00:22:07;98806.34;;;0.83;83.24
77869;BME280;67231;59.144;37.934;2024-01-25T00:24:33;98799.19;;;0.85;83.22
77869;BME280;67231;59.144;37.934;2024-01-25T00:27:00;98798.25;;;0.86;83.00
77869;BME280;67231;59.144;37.934;2024-01-25T00:29:27;98807.78;;;0.87;83.00
77869;BME280;67231;59.144;37.934;2024-01-25T00:31:53;98795.53;;;0.87;82.92
77869;BME280;67231;59.144;37.934;2024-01-25T00:34:20;98798.97;;;0.88;82.72
77869;BME280;67231;59.144;37.934;2024-01-25T00:36:47;98798.16;;;0.87;82.71
77869;BME280;67231;59.144;37.934;2024-01-25T00:39:14;98798.16;;;0.87;82.96
77869;BME280;67231;59.144;37.934;2024-01-25T00:41:42;98800.75;;;0.87;82.81
77869;BME280;67231;59.144;37.934;2024-01-25T00:44:10;98796.47;;;0.86;83.05
77869;BME280;67231;59.144;37.934;2024-01-25T00:46:37;98797.31;;;0.87;83.08
77869;BME280;67231;59.144;37.934;2024-01-25T00:49:04;98797.31;;;0.87;83.24
77869;BME280;67231;59.144;37.934;2024-01-25T00:51:31;98791.13;;;0.88;82.60
77869;BME280;67231;59.144;37.934;2024-01-25T00:53:57;98791.88;;;0.90;83.00
77869;BME280;67231;59.144;37.934;2024-01-25T00:56:24;98787.59;;;0.89;82.51
77869;BME280;67231;59.144;37.934;2024-01-25T00:58:51;98791.13;;;0.88;82.48
77869;BME280;67231;59.144;37.934;2024-01-25T01:01:21;98794.72;;;0.87;82.84
77869;BME280;67231;59.144;37.934;2024-01-25T01:03:49;98787.69;;;0.87;82.77
77869;BME280;67231;59.144;37.934;2024-01-25T01:06:20;98795.53;;;0.87;82.57
77869;BME280;67231;59.144;37.934;2024-01-25T01:08:47;98791.13;;;0.88;82.88
77869;BME280;67231;59.144;37.934;2024-01-25T01:11:13;98790.31;;;0.87;82.92
77869;BME280;67231;59.144;37.934;2024-01-25T01:13:40;98791.25;;;0.86;82.59
77869;BME280;67231;59.144;37.934;2024-01-25T01:16:07;98787.00;;;0.85;82.95
77869;BME280;67231;59.144;37.934;2024-01-25T01:18:33;98781.91;;;0.84;82.74
77869;BME280;67231;59.144;37.934;2024-01-25T01:21:00;98782.59;;;0.86;82.99
77869;BME280;67231;59.144;37.934;2024-01-25T01:23:26;98788.06;;;0.83;82.85
77869;BME280;67231;59.144;37.934;2024-01-25T01:25:53;98784.63;;;0.82;82.77
77869;BME280;67231;59.144;37.934;2024-01-25T01:28:20;98787.13;;;0.84;83.26
77869;BME280;67231;59.144;37.934;2024-01-25T01:30:46;98790.66;;;0.83;82.95
77869;BME280;67231;59.144;37.934;2024-01-25T01:33:13;98785.31;;;0.84;82.71
77869;BME280;67231;59.144;37.934;2024-01-25T01:35:39;98788.75;;;0.85;82.50
77869;BME280;67231;59.144;37.934;2024-01-25T01:38:06;98780.22;;;0.83;82.91
77869;BME280;67231;59.144;37.934;2024-01-25T01:40:33;98789.00;;;0.82;83.19
77869;BME280;67231;59.144;37.934;2024-01-25T01:43:00;98784.50;;;0.84;82.92
77869;BME280;67231;59.144;37.934;2024-01-25T01:45:28;98781.91;;;0.84;82.95
77869;BME280;67231;59.144;37.934;2024-01-25T01:47:55;98781.03;;;0.83;82.62
77869;BME280;67231;59.144;37.934;2024-01-25T01:50:22;98786.25;;;0.83;82.24
77869;BME280;67231;59.144;37.934;2024-01-25T01:52:49;98776.78;;;0.82;82.35
77869;BME280;67231;59.144;37.934;2024-01-25T01:55:17;98781.16;;;0.82;82.58
77869;BME280;67231;59.144;37.934;2024-01-25T01:57:46;98776.78;;;0.82;82.70
77869;BME280;67231;59.144;37.934;2024-01-25T02:00:15;98780.47;;;0.80;82.76
77869;BME280;67231;59.144;37.934;2024-01-25T02:02:42;98782.38;;;0.78;82.70
77869;BME280;67231;59.144;37.934;2024-01-25T02:05:10;98784.16;;;0.77;83.01
77869;BME280;67231;59.144;37.934;2024-01-25T02:07:37;98786.03;;;0.75;82.90
77869;BME280;67231;59.144;37.934;2024-01-25T02:10:04;98791.16;;;0.77;82.96
77869;BME280;67231;59.144;37.934;2024-01-25T02:12:31;98778.94;;;0.77;82.58
77869;BME280;67231;59.144;37.934;2024-01-25T02:14:58;98790.31;;;0.76;82.61
77869;BME280;67231;59.144;37.934;2024-01-25T02:17:25;98783.44;;;0.75;82.47
77869;BME280;67231;59.144;37.934;2024-01-25T02:19:52;98786.91;;;0.76;82.76
77869;BME280;67231;59.144;37.934;2024-01-25T02:22:19;98783.44;;;0.75;82.25
77869;BME280;67231;59.144;37.934;2024-01-25T02:24:46;98790.31;;;0.76;82.36
77869;BME280;67231;59.144;37.934;2024-01-25T02:27:12;98797.09;;;0.79;82.33
77869;BME280;67231;59.144;37.934;2024-01-25T02:29:39;98796.13;;;0.80;82.37
77869;BME280;67231;59.144;37.934;2024-01-25T02:32:06;98792.81;;;0.78;82.43
77869;BME280;67231;59.144;37.934;2024-01-25T02:34:33;98787.59;;;0.78;82.07
77869;BME280;67231;59.144;37.934;2024-01-25T02:36:59;98798.03;;;0.78;82.56
77869;BME280;67231;59.144;37.934;2024-01-25T02:39:26;98788.41;;;0.78;82.39
77869;BME280;67231;59.144;37.934;2024-01-25T02:41:53;98797.22;;;0.77;82.18
77869;BME280;67231;59.144;37.934;2024-01-25T02:44:19;98790.44;;;0.75;82.45
77869;BME280;67231;59.144;37.934;2024-01-25T02:46:46;98796.59;;;0.73;82.11
77869;BME280;67231;59.144;37.934;2024-01-25T02:49:13;98793.28;;;0.71;81.88
77869;BME280;67231;59.144;37.934;2024-01-25T02:51:39;98789.00;;;0.70;82.07
77869;BME280;67231;59.144;37.934;2024-01-25T02:54:06;98789.97;;;0.69;81.68
77869;BME280;67231;59.144;37.934;2024-01-25T02:56:33;98790.22;;;0.66;82.30
77869;BME280;67231;59.144;37.934;2024-01-25T02:59:02;98791.28;;;0.64;81.92
77869;BME280;67231;59.144;37.934;2024-01-25T03:01:37;98794.75;;;0.64;82.29
77869;BME280;67231;59.144;37.934;2024-01-25T03:04:04;98794.63;;;0.66;82.57
77869;BME280;67231;59.144;37.934;2024-01-25T03:06:30;98786.63;;;0.67;82.20
77869;BME280;67231;59.144;37.934;2024-01-25T03:08:57;98792.72;;;0.68;82.69
77869;BME280;67231;59.144;37.934;2024-01-25T03:11:23;98791.84;;;0.67;82.52
77869;BME280;67231;59.144;37.934;2024-01-25T03:13:50;98799.56;;;0.69;82.44
77869;BME280;67231;59.144;37.934;2024-01-25T03:16:17;98786.41;;;0.70;82.69
77869;BME280;67231;59.144;37.934;2024-01-25T03:18:43;98798.88;;;0.67;82.50
77869;BME280;67231;59.144;37.934;2024-01-25T03:21:10;98787.59;;;0.66;82.88
77869;BME280;67231;59.144;37.934;2024-01-25T03:23:37;98800.66;;;0.66;82.69
77869;BME280;67231;59.144;37.934;2024-01-25T03:26:05;98786.91;;;0.64;82.72
77869;BME280;67231;59.144;37.934;2024-01-25T03:28:34;98795.69;;;0.63;82.30
77869;BME280;67231;59.144;37.934;2024-01-25T03:31:03;98783.56;;;0.62;82.67
77869;BME280;67231;59.144;37.934;2024-01-25T03:33:30;98796.63;;;0.62;82.46
77869;BME280;67231;59.144;37.934;2024-01-25T03:36:05;98788.78;;;0.62;82.53
77869;BME280;67231;59.144;37.934;2024-01-25T03:38:32;98793.19;;;0.62;82.67
77869;BME280;67231;59.144;37.934;2024-01-25T03:40:58;98800.19;;;0.61;83.07
77869;BME280;67231;59.144;37.934;2024-01-25T03:43:25;98795.91;;;0.60;82.71
77869;BME280;67231;59.144;37.934;2024-01-25T03:45:52;98792.38;;;0.61;82.58
77869;BME280;67231;59.144;37.934;2024-01-25T03:48:19;98788.78;;;0.62;82.58
77869;BME280;67231;59.144;37.934;2024-01-25T03:50:45;98794.00;;;0.62;82.78
77869;BME280;67231;59.144;37.934;2024-01-25T03:53:12;98794.75;;;0.64;82.29
77869;BME280;67231;59.144;37.934;2024-01-25T03:55:39;98788.53;;;0.65;82.78
77869;BME280;67231;59.144;37.934;2024-01-25T03:58:07;98795.69;;;0.63;82.44
77869;BME280;67231;59.144;37.934;2024-01-25T04:00:33;98787.13;;;0.61;82.46
77869;BME280;67231;59.144;37.934;2024-01-25T04:03:00;98781.81;;;0.63;82.26
77869;BME280;67231;59.144;37.934;2024-01-25T04:05:26;98785.22;;;0.63;82.71
77869;BME280;67231;59.144;37.934;2024-01-25T04:07:53;98786.91;;;0.64;82.09
77869;BME280;67231;59.144;37.934;2024-01-25T04:10:20;98782.38;;;0.66;82.64
77869;BME280;67231;59.144;37.934;2024-01-25T04:12:46;98784.03;;;0.67;82.41
77869;BME280;67231;59.144;37.934;2024-01-25T04:15:13;98790.22;;;0.66;82.43
77869;BME280;67231;59.144;37.934;2024-01-25T04:17:40;98784.19;;;0.66;82.13
77869;BME280;67231;59.144;37.934;2024-01-25T04:20:07;98791.16;;;0.65;82.34
77869;BME280;67231;59.144;37.934;2024-01-25T04:22:34;98783.44;;;0.64;82.49
77869;BME280;67231;59.144;37.934;2024-01-25T04:25:01;98791.28;;;0.64;82.69
77869;BME280;67231;59.144;37.934;2024-01-25T04:27:30;98791.03;;;0.67;82.36
77869;BME280;67231;59.144;37.934;2024-01-25T04:29:56;98790.22;;;0.66;82.66
77869;BME280;67231;59.144;37.934;2024-01-25T04:32:23;98791.84;;;0.67;82.34
77869;BME280;67231;59.144;37.934;2024-01-25T04:34:49;98790.91;;;0.68;82.27
77869;BME280;67231;59.144;37.934;2024-01-25T04:37:16;98789.25;;;0.67;82.01
77869;BME280;67231;59.144;37.934;2024-01-25T04:39:43;98795.56;;;0.65;82.65
77869;BME280;67231;59.144;37.934;2024-01-25T04:42:09;98790.22;;;0.66;82.43
77869;BME280;67231;59.144;37.934;2024-01-25T04:44:36;98795.31;;;0.68;82.18
77869;BME280;67231;59.144;37.934;2024-01-25T04:47:03;98797.81;;;0.69;82.65
77869;BME280;67231;59.144;37.934;2024-01-25T04:49:29;98795.09;;;0.71;82.23
77869;BME280;67231;59.144;37.934;2024-01-25T04:51:56;98808.03;;;0.72;82.30
77869;BME280;67231;59.144;37.934;2024-01-25T04:54:23;98795.09;;;0.71;82.57
77869;BME280;67231;59.144;37.934;2024-01-25T04:56:49;98800.19;;;0.72;82.55
77869;BME280;67231;59.144;37.934;2024-01-25T04:59:16;98792.47;;;0.71;82.29
77869;BME280;67231;59.144;37.934;2024-01-25T05:01:42;98795.09;;;0.71;82.48
77869;BME280;67231;59.144;37.934;2024-01-25T05:04:09;98803.03;;;0.69;82.36
77869;BME280;67231;59.144;37.934;2024-01-25T05:06:35;98795.19;;;0.69;82.43
77869;BME280;67231;59.144;37.934;2024-01-25T05:09:03;98799.69;;;0.67;82.62
77869;BME280;67231;59.144;37.934;2024-01-25T05:11:29;98805.88;;;0.66;82.38
77869;BME280;67231;59.144;37.934;2024-01-25T05:13:56;98808.50;;;0.66;82.28
77869;BME280;67231;59.144;37.934;2024-01-25T05:16:23;98811.91;;;0.67;82.24
77869;BME280;67231;59.144;37.934;2024-01-25T05:18:49;98801.25;;;0.70;82.41
77869;BME280;67231;59.144;37.934;2024-01-25T05:21:16;98818.81;;;0.68;82.07
77869;BME280;67231;59.144;37.934;2024-01-25T05:23:42;98815.22;;;0.69;82.14
77869;BME280;67231;59.144;37.934;2024-01-25T05:26:09;98810.13;;;0.67;82.34
77869;BME280;67231;59.144;37.934;2024-01-25T05:28:36;98815.34;;;0.67;82.04
77869;BME280;67231;59.144;37.934;2024-01-25T05:31:02;98820.56;;;0.67;82.14
77869;BME280;67231;59.144;37.934;2024-01-25T05:33:29;98802.31;;;0.67;82.36
77869;BME280;67231;59.144;37.934;2024-01-25T05:35:56;98813.84;;;0.65;82.46
77869;BME280;67231;59.144;37.934;2024-01-25T05:38:22;98811.09;;;0.66;81.88
77869;BME280;67231;59.144;37.934;2024-01-25T05:40:49;98815.34;;;0.67;82.05
77869;BME280;67231;59.144;37.934;2024-01-25T05:43:16;98816.09;;;0.69;82.20
77869;BME280;67231;59.144;37.934;2024-01-25T05:45:42;98820.47;;;0.69;81.81
77869;BME280;67231;59.144;37.934;2024-01-25T05:48:09;98816.09;;;0.69;82.05
77869;BME280;67231;59.144;37.934;2024-01-25T05:50:36;98825.56;;;0.70;81.84
77869;BME280;67231;59.144;37.934;2024-01-25T05:53:03;98817.72;;;0.70;82.11
77869;BME280;67231;59.144;37.934;2024-01-25T05:55:29;98829.84;;;0.71;81.79
77869;BME280;67231;59.144;37.934;2024-01-25T05:57:58;98830.66;;;0.72;81.64
77869;BME280;67231;59.144;37.934;2024-01-25T06:00:25;98830.91;;;0.69;81.73
77869;BME280;67231;59.144;37.934;2024-01-25T06:02:51;98822.38;;;0.67;81.79
77869;BME280;67231;59.144;37.934;2024-01-25T06:05:18;98830.06;;;0.68;81.76
77869;BME280;67231;59.144;37.934;2024-01-25T06:07:45;98829.13;;;0.69;81.26
77869;BME280;67231;59.144;37.934;2024-01-25T06:10:12;98824.16;;;0.66;81.67
77869;BME280;67231;59.144;37.934;2024-01-25T06:12:39;98834.59;;;0.66;81.46
77869;BME280;67231;59.144;37.934;2024-01-25T06:15:06;98825.94;;;0.66;81.90
77869;BME280;67231;59.144;37.934;2024-01-25T06:17:33;98831.00;;;0.67;81.64
77869;BME280;67231;59.144;37.934;2024-01-25T06:20:00;98842.19;;;0.69;81.55
77869;BME280;67231;59.144;37.934;2024-01-25T06:22:27;98834.25;;;0.71;81.40
77869;BME280;67231;59.144;37.934;2024-01-25T06:24:54;98835.75;;;0.73;81.23
77869;BME280;67231;59.144;37.934;2024-01-25T06:27:20;98840.06;;;0.75;81.63
77869;BME280;67231;59.144;37.934;2024-01-25T06:29:47;98845.28;;;0.75;81.25
77869;BME280;67231;59.144;37.934;2024-01-25T06:32:14;98860.13;;;0.74;81.43
77869;BME280;67231;59.144;37.934;2024-01-25T06:34:40;98847.28;;;0.71;81.21
77869;BME280;67231;59.144;37.934;2024-01-25T06:37:07;98856.78;;;0.72;81.35
77869;BME280;67231;59.144;37.934;2024-01-25T06:39:34;98859.25;;;0.73;81.19
77869;BME280;67231;59.144;37.934;2024-01-25T06:42:00;98853.09;;;0.75;81.33
77869;BME280;67231;59.144;37.934;2024-01-25T06:44:27;98859.03;;;0.77;80.83
77869;BME280;67231;59.144;37.934;2024-01-25T06:46:54;98863.44;;;0.76;81.19
77869;BME280;67231;59.144;37.934;2024-01-25T06:49:21;98855.72;;;0.75;81.18
77869;BME280;67231;59.144;37.934;2024-01-25T06:51:47;98853.09;;;0.75;81.36
77869;BME280;67231;59.144;37.934;2024-01-25T06:54:14;98855.00;;;0.72;81.15
77869;BME280;67231;59.144;37.934;2024-01-25T06:56:41;98869.94;;;0.70;81.15
77869;BME280;67231;59.144;37.934;2024-01-25T06:59:08;98865.69;;;0.69;80.98
77869;BME280;67231;59.144;37.934;2024-01-25T07:01:34;98861.16;;;0.71;81.01
77869;BME280;67231;59.144;37.934;2024-01-25T07:04:01;98867.94;;;0.74;80.95
77869;BME280;67231;59.144;37.934;2024-01-25T07:06:29;98859.88;;;0.77;81.06
77869;BME280;67231;59.144;37.934;2024-01-25T07:08:56;98861.41;;;0.80;81.01
77869;BME280;67231;59.144;37.934;2024-01-25T07:11:23;98875.06;;;0.83;80.95
77869;BME280;67231;59.144;37.934;2024-01-25T07:13:51;98864.50;;;0.85;81.24
77869;BME280;67231;59.144;37.934;2024-01-25T07:16:17;98868.78;;;0.86;81.18
77869;BME280;67231;59.144;37.934;2024-01-25T07:18:45;98875.66;;;0.87;80.78
77869;BME280;67231;59.144;37.934;2024-01-25T07:21:12;98872.31;;;0.85;81.04
77869;BME280;67231;59.144;37.934;2024-01-25T07:23:38;98866.88;;;0.88;81.13
77869;BME280;67231;59.144;37.934;2024-01-25T07:26:05;98873.16;;;0.85;81.25
77869;BME280;67231;59.144;37.934;2024-01-25T07:28:32;98886.13;;;0.87;81.21
77869;BME280;67231;59.144;37.934;2024-01-25T07:30:58;98882.53;;;0.88;81.10
77869;BME280;67231;59.144;37.934;2024-01-25T07:33:25;98881.72;;;0.87;80.99
77869;BME280;67231;59.144;37.934;2024-01-25T07:35:51;98886.47;;;0.94;81.14
77869;BME280;67231;59.144;37.934;2024-01-25T07:38:18;98890.59;;;0.96;81.13
77869;BME280;67231;59.144;37.934;2024-01-25T07:40:45;98890.13;;;1.02;80.87
77869;BME280;67231;59.144;37.934;2024-01-25T07:43:11;98904.16;;;1.01;80.41
77869;BME280;67231;59.144;37.934;2024-01-25T07:45:38;98904.16;;;1.01;80.79
77869;BME280;67231;59.144;37.934;2024-01-25T07:48:06;98899.28;;;0.97;80.66
77869;BME280;67231;59.144;37.934;2024-01-25T07:50:33;98908.41;;;0.91;80.83
77869;BME280;67231;59.144;37.934;2024-01-25T07:52:59;98916.13;;;0.93;80.58
77869;BME280;67231;59.144;37.934;2024-01-25T07:55:27;98916.13;;;0.93;80.78
77869;BME280;67231;59.144;37.934;2024-01-25T07:57:54;98910.09;;;0.92;80.53
77869;BME280;67231;59.144;37.934;2024-01-25T08:00:21;98919.56;;;0.93;80.75
77869;BME280;67231;59.144;37.934;2024-01-25T08:02:48;98917.81;;;0.94;80.45
77869;BME280;67231;59.144;37.934;2024-01-25T08:05:14;98917.09;;;0.92;80.32
77869;BME280;67231;59.144;37.934;2024-01-25T08:07:41;98917.91;;;0.92;80.75
77869;BME280;67231;59.144;37.934;2024-01-25T08:10:07;98922.19;;;0.93;80.50
77869;BME280;67231;59.144;37.934;2024-01-25T08:12:34;98923.97;;;0.93;80.22
77869;BME280;67231;59.144;37.934;2024-01-25T08:15:01;98920.19;;;0.97;80.65
77869;BME280;67231;59.144;37.934;2024-01-25T08:17:30;98927.78;;;1.00;80.74
77869;BME280;67231;59.144;37.934;2024-01-25T08:19:59;98926.00;;;1.00;80.55
77869;BME280;67231;59.144;37.934;2024-01-25T08:22:26;98935.50;;;1.01;80.59
77869;BME280;67231;59.144;37.934;2024-01-25T08:24:52;98925.06;;;1.01;80.29
77869;BME280;67231;59.144;37.934;2024-01-25T08:27:19;98933.59;;;1.03;80.30
77869;BME280;67231;59.144;37.934;2024-01-25T08:29:46;98939.63;;;1.04;80.46
77869;BME280;67231;59.144;37.934;2024-01-25T08:32:20;98939.75;;;1.02;80.49
77869;BME280;67231;59.144;37.934;2024-01-25T08:34:46;98939.75;;;1.02;80.48
77869;BME280;67231;59.144;37.934;2024-01-25T08:37:13;98935.00;;;1.07;80.63
77869;BME280;67231;59.144;37.934;2024-01-25T08:39:39;98942.59;;;1.11;80.50
77869;BME280;67231;59.144;37.934;2024-01-25T08:42:06;98948.81;;;1.09;80.41
77869;BME280;67231;59.144;37.934;2024-01-25T08:44:33;98945.56;;;1.06;80.73
77869;BME280;67231;59.144;37.934;2024-01-25T08:46:59;98942.94;;;1.06;80.35
77869;BME280;67231;59.144;37.934;2024-01-25T08:49:26;98953.06;;;1.11;80.49
77869;BME280;67231;59.144;37.934;2024-01-25T08:51:52;98952.81;;;1.14;80.71
77869;BME280;67231;59.144;37.934;2024-01-25T08:54:19;98944.50;;;1.20;80.23
77869;BME280;67231;59.144;37.934;2024-01-25T08:56:45;98945.84;;;1.25;80.31
77869;BME280;67231;59.144;37.934;2024-01-25T08:59:12;98945.22;;;1.33;79.97
77869;BME280;67231;59.144;37.934;2024-01-25T09:01:39;98957.69;;;1.41;79.57
77869;BME280;67231;59.144;37.934;2024-01-25T09:04:05;98953.31;;;1.41;79.57
77869;BME280;67231;59.144;37.934;2024-01-25T09:06:32;98942.00;;;1.41;80.09
77869;BME280;67231;59.144;37.934;2024-01-25T09:08:58;98943.66;;;1.42;79.81
77869;BME280;67231;59.144;37.934;2024-01-25T09:11:25;98936.88;;;1.51;79.82
77869;BME280;67231;59.144;37.934;2024-01-25T09:13:52;98938.66;;;1.61;79.53
77869;BME280;67231;59.144;37.934;2024-01-25T09:16:18;98943.97;;;1.71;80.04
77869;BME280;67231;59.144;37.934;2024-01-25T09:18:46;98944.94;;;1.70;79.55
77869;BME280;67231;59.144;37.934;2024-01-25T09:21:12;98942.91;;;1.74;79.49
77869;BME280;67231;59.144;37.934;2024-01-25T09:23:39;98963.94;;;1.72;79.13
77869;BME280;67231;59.144;37.934;2024-01-25T09:26:06;98954.44;;;1.71;79.36
77869;BME280;67231;59.144;37.934;2024-01-25T09:28:33;98937.34;;;1.67;79.49
77869;BME280;67231;59.144;37.934;2024-01-25T09:30:59;98947.28;;;1.73;79.63
77869;BME280;67231;59.144;37.934;2024-01-25T09:33:26;98944.91;;;1.81;79.49
77869;BME280;67231;59.144;37.934;2024-01-25T09:35:52;98943.25;;;1.80;79.55
77869;BME280;67231;59.144;37.934;2024-01-25T09:38:19;98944.19;;;1.79;79.27
77869;BME280;67231;59.144;37.934;2024-01-25T09:40:46;98956.44;;;1.79;79.19
77869;BME280;67231;59.144;37.934;2024-01-25T09:43:12;98960.84;;;1.78;79.12
77869;BME280;67231;59.144;37.934;2024-01-25T09:45:40;98966.09;;;1.78;79.27
77869;BME280;67231;59.144;37.934;2024-01-25T09:48:07;98951.78;;;1.82;79.14
77869;BME280;67231;59.144;37.934;2024-01-25T09:50:34;98965.31;;;1.88;78.43
77869;BME280;67231;59.144;37.934;2024-01-25T09:53:02;98954.03;;;1.87;79.00
77869;BME280;67231;59.144;37.934;2024-01-25T09:55:30;98964.13;;;1.92;78.56
77869;BME280;67231;59.144;37.934;2024-01-25T09:57:59;98960.09;;;1.88;79.20
77869;BME280;67231;59.144;37.934;2024-01-25T10:00:25;98960.34;;;1.85;79.08
77869;BME280;67231;59.144;37.934;2024-01-25T10:02:52;98957.47;;;1.88;79.30
77869;BME280;67231;59.144;37.934;2024-01-25T10:05:19;98958.69;;;1.84;79.00
77869;BME280;67231;59.144;37.934;2024-01-25T10:07:46;98959.06;;;1.79;78.53
77869;BME280;67231;59.144;37.934;2024-01-25T10:10:14;98961.91;;;1.76;78.25
77869;BME280;67231;59.144;37.934;2024-01-25T10:12:42;98970.81;;;1.73;78.99
77869;BME280;67231;59.144;37.934;2024-01-25T10:15:11;98964.41;;;1.77;78.70
77869;BME280;67231;59.144;37.934;2024-01-25T10:17:38;98966.31;;;1.75;78.83
77869;BME280;67231;59.144;37.934;2024-01-25T10:20:05;98961.09;;;1.75;78.42
77869;BME280;67231;59.144;37.934;2024-01-25T10:22:40;98984.88;;;1.72;78.26
77869;BME280;67231;59.144;37.934;2024-01-25T10:25:13;98958.03;;;1.70;78.22
77869;BME280;67231;59.144;37.934;2024-01-25T10:27:43;98964.19;;;1.69;78.64
77869;BME280;67231;59.144;37.934;2024-01-25T10:30:11;98959.91;;;1.68;78.88
77869;BME280;67231;59.144;37.934;2024-01-25T10:32:40;98966.81;;;1.69;79.22
77869;BME280;67231;59.144;37.934;2024-01-25T10:35:08;98972.16;;;1.68;79.04
77869;BME280;67231;59.144;37.934;2024-01-25T10:37:36;98974.66;;;1.69;78.82
77869;BME280;67231;59.144;37.934;2024-01-25T10:40:05;98977.75;;;1.63;78.74
77869;BME280;67231;59.144;37.934;2024-01-25T10:42:36;98986.19;;;1.55;78.84
77869;BME280;67231;59.144;37.934;2024-01-25T10:45:03;98988.09;;;1.53;78.58
77869;BME280;67231;59.144;37.934;2024-01-25T10:47:30;98979.66;;;1.50;78.92
77869;BME280;67231;59.144;37.934;2024-01-25T10:50:01;98985.84;;;1.49;79.15
77869;BME280;67231;59.144;37.934;2024-01-25T10:52:31;98987.50;;;1.50;79.02
77869;BME280;67231;59.144;37.934;2024-01-25T10:54:58;98985.59;;;1.52;79.24
77869;BME280;67231;59.144;37.934;2024-01-25T10:57:25;98984.16;;;1.48;79.12
77869;BME280;67231;59.144;37.934;2024-01-25T10:59:53;98991.53;;;1.42;79.25
77869;BME280;67231;59.144;37.934;2024-01-25T11:02:19;98993.22;;;1.43;78.89
77869;BME280;67231;59.144;37.934;2024-01-25T11:04:55;98996.53;;;1.45;79.26
77869;BME280;67231;59.144;37.934;2024-01-25T11:07:25;99002.59;;;1.46;79.55
77869;BME280;67231;59.144;37.934;2024-01-25T11:09:52;99005.47;;;1.43;79.39
77869;BME280;67231;59.144;37.934;2024-01-25T11:12:19;99006.28;;;1.43;79.86
77869;BME280;67231;59.144;37.934;2024-01-25T11:14:56;99002.47;;;1.48;79.23
77869;BME280;67231;59.144;37.934;2024-01-25T11:17:23;99005.34;;;1.44;79.39
77869;BME280;67231;59.144;37.934;2024-01-25T11:19:50;99004.84;;;1.39;79.29
77869;BME280;67231;59.144;37.934;2024-01-25T11:22:17;99011.16;;;1.37;79.11
77869;BME280;67231;59.144;37.934;2024-01-25T11:24:44;99019.47;;;1.31;79.05
77869;BME280;67231;59.144;37.934;2024-01-25T11:27:12;99029.91;;;1.31;79.27
77869;BME280;67231;59.144;37.934;2024-01-25T11:29:41;99026.59;;;1.29;79.25
77869;BME280;67231;59.144;37.934;2024-01-25T11:32:09;99015.75;;;1.22;79.33
77869;BME280;67231;59.144;37.934;2024-01-25T11:34:38;99015.75;;;1.22;79.30
77869;BME280;67231;59.144;37.934;2024-01-25T11:37:05;99023.72;;;1.20;79.45
77869;BME280;67231;59.144;37.934;2024-01-25T11:39:32;99024.56;;;1.21;79.43
77869;BME280;67231;59.144;37.934;2024-01-25T11:41:58;99023.84;;;1.19;79.48
77869;BME280;67231;59.144;37.934;2024-01-25T11:44:25;99030.25;;;1.15;79.66
77869;BME280;67231;59.144;37.934;2024-01-25T11:46:55;99031.19;;;1.14;79.19
77869;BME280;67231;59.144;37.934;2024-01-25T11:49:23;99025.97;;;1.14;79.71
77869;BME280;67231;59.144;37.934;2024-01-25T11:51:49;99030.94;;;1.05;79.59
77869;BME280;67231;59.144;37.934;2024-01-25T11:54:16;99030.94;;;1.05;79.71
77869;BME280;67231;59.144;37.934;2024-01-25T11:56:42;99028.22;;;1.07;79.56
77869;BME280;67231;59.144;37.934;2024-01-25T11:59:10;99031.53;;;1.09;79.86
77869;BME280;67231;59.144;37.934;2024-01-25T12:01:37;99023.00;;;1.07;79.84
77869;BME280;67231;59.144;37.934;2024-01-25T12:04:04;99030.00;;;1.06;79.70
77869;BME280;67231;59.144;37.934;2024-01-25T12:06:31;99039.50;;;1.07;80.01
77869;BME280;67231;59.144;37.934;2024-01-25T12:09:06;99026.56;;;1.06;79.66
77869;BME280;67231;59.144;37.934;2024-01-25T12:11:34;99038.56;;;1.08;79.94
77869;BME280;67231;59.144;37.934;2024-01-25T12:14:01;99018.59;;;1.07;79.22
77869;BME280;67231;59.144;37.934;2024-01-25T12:16:28;99028.09;;;1.08;79.64
77869;BME280;67231;59.144;37.934;2024-01-25T12:18:55;99029.78;;;1.09;79.31
77869;BME280;67231;59.144;37.934;2024-01-25T12:21:23;99035.13;;;1.08;79.79
77869;BME280;67231;59.144;37.934;2024-01-25T12:23:50;99049.81;;;1.09;79.65
77869;BME280;67231;59.144;37.934;2024-01-25T12:26:17;99043.06;;;1.06;79.17
77869;BME280;67231;59.144;37.934;2024-01-25T12:28:43;99050.19;;;1.04;79.27
77869;BME280;67231;59.144;37.934;2024-01-25T12:31:10;99044.97;;;1.04;79.75
77869;BME280;67231;59.144;37.934;2024-01-25T12:33:37;99051.03;;;1.05;79.52
77869;BME280;67231;59.144;37.934;2024-01-25T12:36:09;99062.28;;;1.05;79.59
77869;BME280;67231;59.144;37.934;2024-01-25T12:38:36;99060.75;;;1.03;79.85
77869;BME280;67231;59.144;37.934;2024-01-25T12:41:02;99055.66;;;1.01;79.73
77869;BME280;67231;59.144;37.934;2024-01-25T12:43:29;99066.09;;;1.01;79.90
77869;BME280;67231;59.144;37.934;2024-01-25T12:45:56;99066.09;;;1.01;79.79
77869;BME280;67231;59.144;37.934;2024-01-25T12:48:23;99067.97;;;0.99;80.06
77869;BME280;67231;59.144;37.934;2024-01-25T12:50:49;99075.94;;;0.98;79.99
77869;BME280;67231;59.144;37.934;2024-01-25T12:53:16;99073.44;;;0.96;79.84
77869;BME280;67231;59.144;37.934;2024-01-25T12:55:42;99078.75;;;0.95;80.04
77869;BME280;67231;59.144;37.934;2024-01-25T12:58:09;99073.66;;;0.93;80.41